sensor_id;sensor_type;location;lat;lon;timestamp;temperature;humidity
44731;DHT22;30458;47.448;19.032;2022-10-16T00:08:22;16.20;99.80
44731;DHT22;30458;47.448;19.032;2022-10-16T00:18:23;16.30;99.10
44731;DHT22;30458;47.448;19.032;2022-10-16T00:28:24;16.10;99.40
44731;DHT22;30458;47.448;19.032;2022-10-16T00:38:25;16.10;99.60
44731;DHT22;30458;47.448;19.032;2022-10-16T00:48:28;16.20;99.50
44731;DHT22;30458;47.448;19.032;2022-10-16T00:58:30;16.50;99.10
44731;DHT22;30458;47.448;19.032;2022-10-16T01:39:55;15.90;99.10
44731;DHT22;30458;47.448;19.032;2022-10-16T01:49:59;16.00;99.90
44731;DHT22;30458;47.448;19.032;2022-10-16T02:00:07;15.90;99.90
44731;DHT22;30458;47.448;19.032;2022-10-16T02:10:12;15.70;99.90
44731;DHT22;30458;47.448;19.032;2022-10-16T02:20:13;15.50;99.90
44731;DHT22;30458;47.448;19.032;2022-10-16T02:30:21;15.30;99.90
44731;DHT22;30458;47.448;19.032;2022-10-16T02:40:23;15.10;99.90
44731;DHT22;30458;47.448;19.032;2022-10-16T02:50:29;15.00;99.90
44731;DHT22;30458;47.448;19.032;2022-10-16T03:00:30;14.90;99.90
44731;DHT22;30458;47.448;19.032;2022-10-16T03:10:33;14.60;99.90
44731;DHT22;30458;47.448;19.032;2022-10-16T03:20:34;14.50;99.90
44731;DHT22;30458;47.448;19.032;2022-10-16T03:30:34;14.40;99.90
44731;DHT22;30458;47.448;19.032;2022-10-16T03:40:37;14.20;99.90
44731;DHT22;30458;47.448;19.032;2022-10-16T03:50:40;14.10;99.90
44731;DHT22;30458;47.448;19.032;2022-10-16T04:00:42;14.00;99.90
44731;DHT22;30458;47.448;19.032;2022-10-16T04:10:43;13.80;99.90
44731;DHT22;30458;47.448;19.032;2022-10-16T04:20:47;13.80;99.90
44731;DHT22;30458;47.448;19.032;2022-10-16T04:30:50;13.70;99.90
44731;DHT22;30458;47.448;19.032;2022-10-16T04:40:51;13.70;99.90
44731;DHT22;30458;47.448;19.032;2022-10-16T04:50:52;13.50;99.90
44731;DHT22;30458;47.448;19.032;2022-10-16T05:00:53;13.40;99.90
44731;DHT22;30458;47.448;19.032;2022-10-16T05:10:56;13.30;99.90
44731;DHT22;30458;47.448;19.032;2022-10-16T05:20:59;13.20;99.90
44731;DHT22;30458;47.448;19.032;2022-10-16T05:31:05;13.30;99.90
44731;DHT22;30458;47.448;19.032;2022-10-16T05:41:06;13.70;99.90
44731;DHT22;30458;47.448;19.032;2022-10-16T05:51:09;14.60;99.90
44731;DHT22;30458;47.448;19.032;2022-10-16T06:01:12;15.60;99.10
44731;DHT22;30458;47.448;19.032;2022-10-16T06:11:18;16.60;97.90
44731;DHT22;30458;47.448;19.032;2022-10-16T06:21:21;17.90;96.60
44731;DHT22;30458;47.448;19.032;2022-10-16T06:31:24;19.40;95.30
44731;DHT22;30458;47.448;19.032;2022-10-16T06:41:31;20.80;92.80
44731;DHT22;30458;47.448;19.032;2022-10-16T06:51:41;22.10;91.20
44731;DHT22;30458;47.448;19.032;2022-10-16T07:01:42;22.40;86.90
44731;DHT22;30458;47.448;19.032;2022-10-16T07:11:43;20.90;88.30
44731;DHT22;30458;47.448;19.032;2022-10-16T07:21:44;22.60;85.30
44731;DHT22;30458;47.448;19.032;2022-10-16T07:31:46;23.70;82.10
44731;DHT22;30458;47.448;19.032;2022-10-16T07:41:47;25.10;77.20
44731;DHT22;30458;47.448;19.032;2022-10-16T07:51:47;26.10;76.00
44731;DHT22;30458;47.448;19.032;2022-10-16T08:01:49;26.50;73.40
44731;DHT22;30458;47.448;19.032;2022-10-16T08:11:50;27.60;72.40
44731;DHT22;30458;47.448;19.032;2022-10-16T08:21:52;28.00;68.00
44731;DHT22;30458;47.448;19.032;2022-10-16T08:31:52;26.10;70.70
44731;DHT22;30458;47.448;19.032;2022-10-16T08:52:30;28.90;66.70
44731;DHT22;30458;47.448;19.032;2022-10-16T09:02:36;28.40;67.50
44731;DHT22;30458;47.448;19.032;2022-10-16T09:33:05;21.30;81.40
44731;DHT22;30458;47.448;19.032;2022-10-16T09:53:21;20.00;86.40
44731;DHT22;30458;47.448;19.032;2022-10-16T10:03:38;19.60;86.80
44731;DHT22;30458;47.448;19.032;2022-10-16T10:13:42;19.80;88.60
44731;DHT22;30458;47.448;19.032;2022-10-16T10:23:55;19.40;88.40
44731;DHT22;30458;47.448;19.032;2022-10-16T10:55:09;19.10;90.40
44731;DHT22;30458;47.448;19.032;2022-10-16T11:15:37;19.20;90.60
44731;DHT22;30458;47.448;19.032;2022-10-16T11:25:45;19.30;90.20
44731;DHT22;30458;47.448;19.032;2022-10-16T11:36:03;19.50;90.60
44731;DHT22;30458;47.448;19.032;2022-10-16T11:46:15;19.70;90.00
44731;DHT22;30458;47.448;19.032;2022-10-16T11:56:23;19.80;89.40
44731;DHT22;30458;47.448;19.032;2022-10-16T12:06:37;19.60;89.90
44731;DHT22;30458;47.448;19.032;2022-10-16T12:16:58;19.70;89.80
44731;DHT22;30458;47.448;19.032;2022-10-16T12:37:35;19.90;89.40
44731;DHT22;30458;47.448;19.032;2022-10-16T12:47:48;20.10;90.00
44731;DHT22;30458;47.448;19.032;2022-10-16T13:28:29;20.50;88.50
44731;DHT22;30458;47.448;19.032;2022-10-16T13:38:35;20.50;87.10
44731;DHT22;30458;47.448;19.032;2022-10-16T13:48:36;20.60;87.70
44731;DHT22;30458;47.448;19.032;2022-10-16T13:58:39;20.60;88.40
44731;DHT22;30458;47.448;19.032;2022-10-16T14:08:43;20.60;86.80
44731;DHT22;30458;47.448;19.032;2022-10-16T14:19:04;20.60;86.80
44731;DHT22;30458;47.448;19.032;2022-10-16T14:29:15;20.60;87.00
44731;DHT22;30458;47.448;19.032;2022-10-16T14:39:20;20.60;86.90
44731;DHT22;30458;47.448;19.032;2022-10-16T14:49:22;20.60;85.80
44731;DHT22;30458;47.448;19.032;2022-10-16T14:59:35;20.50;86.90
44731;DHT22;30458;47.448;19.032;2022-10-16T15:09:36;20.50;87.40
44731;DHT22;30458;47.448;19.032;2022-10-16T15:19:37;20.40;88.30
44731;DHT22;30458;47.448;19.032;2022-10-16T15:29:38;20.40;88.70
44731;DHT22;30458;47.448;19.032;2022-10-16T15:39:42;20.30;89.50
44731;DHT22;30458;47.448;19.032;2022-10-16T15:49:42;20.20;90.20
44731;DHT22;30458;47.448;19.032;2022-10-16T15:59:43;20.00;90.20
44731;DHT22;30458;47.448;19.032;2022-10-16T16:09:44;19.60;90.80
44731;DHT22;30458;47.448;19.032;2022-10-16T16:19:46;19.40;91.00
44731;DHT22;30458;47.448;19.032;2022-10-16T16:29:47;19.40;92.50
44731;DHT22;30458;47.448;19.032;2022-10-16T16:39:48;19.30;93.50
44731;DHT22;30458;47.448;19.032;2022-10-16T16:49:49;19.00;94.30
44731;DHT22;30458;47.448;19.032;2022-10-16T16:59:50;18.70;94.90
44731;DHT22;30458;47.448;19.032;2022-10-16T17:09:52;18.40;95.30
44731;DHT22;30458;47.448;19.032;2022-10-16T17:19:53;18.30;95.50
44731;DHT22;30458;47.448;19.032;2022-10-16T17:29:53;18.10;96.00
44731;DHT22;30458;47.448;19.032;2022-10-16T17:39:54;17.90;96.50
44731;DHT22;30458;47.448;19.032;2022-10-16T17:49:55;17.70;96.90
44731;DHT22;30458;47.448;19.032;2022-10-16T17:59:58;17.50;97.20
44731;DHT22;30458;47.448;19.032;2022-10-16T18:09:59;17.40;97.60
44731;DHT22;30458;47.448;19.032;2022-10-16T18:20:00;17.10;97.90
44731;DHT22;30458;47.448;19.032;2022-10-16T18:30:01;17.00;98.30
44731;DHT22;30458;47.448;19.032;2022-10-16T18:40:03;16.80;98.60
44731;DHT22;30458;47.448;19.032;2022-10-16T18:50:04;16.60;98.90
44731;DHT22;30458;47.448;19.032;2022-10-16T19:00:06;16.40;99.10
44731;DHT22;30458;47.448;19.032;2022-10-16T19:10:09;16.40;99.10
44731;DHT22;30458;47.448;19.032;2022-10-16T19:20:10;16.30;99.30
44731;DHT22;30458;47.448;19.032;2022-10-16T19:30:10;16.10;99.50
44731;DHT22;30458;47.448;19.032;2022-10-16T19:40:13;16.00;99.60
44731;DHT22;30458;47.448;19.032;2022-10-16T19:50:16;15.90;99.90
44731;DHT22;30458;47.448;19.032;2022-10-16T20:00:18;15.70;99.90
44731;DHT22;30458;47.448;19.032;2022-10-16T20:10:19;15.50;99.90
44731;DHT22;30458;47.448;19.032;2022-10-16T20:20:20;15.50;99.90
44731;DHT22;30458;47.448;19.032;2022-10-16T20:30:21;15.50;99.90
44731;DHT22;30458;47.448;19.032;2022-10-16T20:40:21;15.30;99.90
44731;DHT22;30458;47.448;19.032;2022-10-16T20:50:22;15.20;99.90
44731;DHT22;30458;47.448;19.032;2022-10-16T21:00:25;15.20;99.90
44731;DHT22;30458;47.448;19.032;2022-10-16T21:10:28;15.10;99.90
44731;DHT22;30458;47.448;19.032;2022-10-16T21:20:32;15.10;99.90
44731;DHT22;30458;47.448;19.032;2022-10-16T21:30:35;15.00;99.90
44731;DHT22;30458;47.448;19.032;2022-10-16T21:40:36;14.90;99.90
44731;DHT22;30458;47.448;19.032;2022-10-16T21:50:37;14.60;99.90
44731;DHT22;30458;47.448;19.032;2022-10-16T22:00:43;14.50;99.90
44731;DHT22;30458;47.448;19.032;2022-10-16T22:10:43;14.40;99.90
44731;DHT22;30458;47.448;19.032;2022-10-16T22:20:46;14.50;99.90
44731;DHT22;30458;47.448;19.032;2022-10-16T22:30:50;14.30;99.90
44731;DHT22;30458;47.448;19.032;2022-10-16T22:40:50;14.30;99.90
44731;DHT22;30458;47.448;19.032;2022-10-16T22:50:51;14.30;99.90
44731;DHT22;30458;47.448;19.032;2022-10-16T23:00:54;14.20;99.90
44731;DHT22;30458;47.448;19.032;2022-10-16T23:10:57;14.10;99.90
44731;DHT22;30458;47.448;19.032;2022-10-16T23:21:05;14.00;99.90
44731;DHT22;30458;47.448;19.032;2022-10-16T23:31:07;13.90;99.90
44731;DHT22;30458;47.448;19.032;2022-10-16T23:41:09;13.90;99.90
44731;DHT22;30458;47.448;19.032;2022-10-16T23:51:12;13.80;99.90
